352  
UXUS97 KREV 141336  
SRGREV  
 
SOARING FORECAST  
NATIONAL WEATHER SERVICE - RENO NV  
700 AM PDT FRI AUG 14 2020  
 
THIS SOARING FORECAST IS FOR THE EASTERN SIERRA AND WESTERN NEVADA  
WITH SPECIFIC INDICES FOR THE GREATER RENO AREA.  
 
THIS FORECAST IS PREPARED DAILY BY 700 AM AND IS NOT UPDATED.  
 
FOR CURRENT FLIGHT CONDITIONS...FORECASTS...AND ADVISORIES...ACCESS  
YOUR LOCAL BRIEFING OUTLET OR FLIGHT SERVICE STATION.  
 
*******************************************************************  
FORECASTED LOCAL INDICES FOR RENO: TODAY YESTERDAY  
FORECASTED MAX TEMP AT RENO (DEG F)..... 95 94  
FORECASTED TRIGGER TEMPERATURE (DEG F).. 81 77  
EXCEEDED YESTERDAY BY 1055 AM PDT  
FORECASTED MAXIMUM ALTITUDE (FT MSL).... 15600 17000  
FORECASTED SOARING INDEX (FPM).......... 918 1080  
FORECASTED K-INDEX.........VALID 18Z.... 28 16  
FORECASTED K-INDEX.........VALID 00Z.... 32 22  
FORECASTED LIFTED INDEX....VALID 18Z.... 1 4  
FORECASTED LIFTED INDEX....VALID 00Z.... -1 2  
 
AFTERNOON WINDS ALOFT FORECAST  
MSL (FT) WIND/TEMP  
9000 2407/+19  
10000 2407/+16  
12000 2408/+10  
14000 2211/+04  
16000 2214/-01  
18000 2223/-07  
24000 1912/-19  
30000 2115/-36  
34000 2117/-44  
39000 2336/-53  
 
SLIDE MOUNTAIN DATA:  
DATE TIME TEMP DEWPT RH WIND (MPH)  
(F) (F) | DIR SPEED GUST  
2020-08-14 05:50 57 43 48 | 210 0 2  
2020-08-14 05:30 57 43 48 | 211 2 5  
2020-08-14 05:20 57 43 49 | 229 3 7  
2020-08-14 05:00 56 43 50 | 258 5 12  
 
SIERRA CREST 8700 FT DATA:  
DATE TIME TEMP RH WIND  
DIR SPEED GUST  
2020-08-14 0600 59 47  
2020-08-14 0545 58 48 N/A  
2020-08-14 0530 57 48  
2020-08-14 0515 57 46  
 
RENO TAF FORECAST:  
KRNO 141133Z 1412/1512 VRB03KT P6SM SCT200  
FM142000 10006KT P6SM SCT100 SCT180  
FM142300 28010G18KT P6SM SCT100 SCT180  
FM150500 VRB03KT P6SM SCT120  
 
MINDEN TAF FORECAST:  
KMEV 141133Z 1412/1512 12005KT P6SM SCT200  
FM142200 28010G18KT P6SM SCT100 BKN140 PROB30 1422/1501 -TSRA  
BKN080CB  
FM150500 12006KT P6SM SCT120  
 
OUTLOOK FOR THE RENO-CARSON CITY-MINDEN AREA:   
SATURDAY
 
SUNNY IN THE MORNING, THEN PARTLY CLOUDY WITH A  
SLIGHT CHANCE OF SHOWERS AND THUNDERSTORMS IN THE AFTERNOON.  
HIGHS 95 TO 100. LIGHT WINDS BECOMING SOUTH AROUND 10 MPH IN THE  
AFTERNOON.  
 
SUNRISE AND SUNSET  
AUGUST 14 2020........SUNRISE 611 AM PDT SUNSET 755 PM PDT  
AUGUST 15 2020........SUNRISE 612 AM PDT SUNSET 754 PM PDT  
 
CLICK HERE TO GO TO PREVIOUS BULLETINS.

The Nexlab NV Page
The Nexlab CA Page Main Text Page